WetterOnline ( http://www.wetteronline.de )

Wetter aktuell Kiel

Aktuelles Wetter: Kiel/Holtenau (27m)

6-stündlich | Neueste Meldungen
Ortszeit Temperatur Wetter
Sa, 22.09. 20:00 11.3° C leicht bewölkt
Sa, 22.09. 14:00 14.2° C bewölkt
Sa, 22.09. 8:00 9.4° C fast wolkenlos
Sa, 22.09. 2:00 9.1° C wolkig
Fr, 21.09. 20:00 9.5° C wolkenlos
Fr, 21.09. 14:00 14.3° C leichter Regen
Sa, 15.09. 8:00 11.7° C leicht bewölkt
Sa, 15.09. 2:00 13.8° C wolkig
Ortszeit Temperatur Wetter
Sa, 22.09. 22:00 9.5° C leicht bewölkt
Sa, 22.09. 21:50 9.5° C leicht bewölkt
Sa, 22.09. 21:40 9.5° C leicht bewölkt
Sa, 22.09. 21:30 9.6° C fast wolkenlos
Sa, 22.09. 21:20 9.6° C fast wolkenlos
Sa, 22.09. 21:10 9.8° C leicht bewölkt
Sa, 22.09. 21:00 10.0° C fast wolkenlos
Sa, 22.09. 20:30 11.1° C bewölkt
Sa, 22.09. 20:00 11.3° C leicht bewölkt
Sa, 22.09. 19:30 11.9° C wolkenlos
Sa, 22.09. 19:00 12.7° C wolkenlos
Ortszeit Relative Feuchte Sichtweite
Sa, 22.09. 20:00 67% 45 km
Sa, 22.09. 14:00 59% 26 km
Sa, 22.09. 8:00 96% 15 km
Sa, 22.09. 2:00 91% 30 km
Fr, 21.09. 20:00 83% 50 km
Fr, 21.09. 14:00 87% 16 km
Sa, 15.09. 8:00 95% 7 km
Sa, 15.09. 2:00 75% 27 km
Ortszeit Relative Feuchte Sichtweite
Sa, 22.09. 22:00 77% 30 km
Sa, 22.09. 21:50 77% -
Sa, 22.09. 21:40 78% -
Sa, 22.09. 21:30 76% 30 km
Sa, 22.09. 21:20 76% -
Sa, 22.09. 21:10 75% -
Sa, 22.09. 21:00 74% 40 km
Sa, 22.09. 20:30 69% 45 km
Sa, 22.09. 20:00 67% 45 km
Sa, 22.09. 19:30 63% 40 km
Sa, 22.09. 19:00 61% 30 km
Ortszeit Niederschlagsmenge Niederschlagsart
Sa, 22.09. 20:00 0.9 l/m2 in 12 Std. Regen
Sa, 22.09. 14:00 0.9 l/m2 in 6 Std. Regen
Sa, 22.09. 8:00 6 l/m2 in 12 Std. Regen
Sa, 22.09. 2:00 3 l/m2 in 6 Std. Regen
Fr, 21.09. 20:00 1 l/m2 in 3 Std. Regen
Fr, 21.09. 14:00 0.0 l/m2 -
Sa, 15.09. 8:00 2 l/m2 in 12 Std. Regen
Sa, 15.09. 2:00 0.1 l/m2 in 6 Std. Regen
Ortszeit Niederschlagsmenge Niederschlagsart
Sa, 22.09. 22:00 0.0 l/m2 in 1 Std. -
Sa, 22.09. 21:50 keine Meldung -
Sa, 22.09. 21:40 keine Meldung -
Sa, 22.09. 21:30 0.0 l/m2 in 1 Std. -
Sa, 22.09. 21:20 keine Meldung -
Sa, 22.09. 21:10 keine Meldung -
Sa, 22.09. 21:00 0.0 l/m2 in 1 Std. -
Sa, 22.09. 20:30 0.0 l/m2 in 1 Std. -
Sa, 22.09. 20:00 0.0 l/m2 in 1 Std. Regen
Sa, 22.09. 19:30 0.0 l/m2 in 1 Std. -
Sa, 22.09. 19:00 0.0 l/m2 in 1 Std. -
Ortszeit Stärke Spitze Richtung
km/h Bft. km/h Grad Sektor
Sa, 22.09. 20:00 11 2 61 250° W
Sa, 22.09. 14:00 25 4 58 260° W
Sa, 22.09. 8:00 11 2 40 220° SW
Sa, 22.09. 2:00 17 3 65 230° SW
Fr, 21.09. 20:00 13 3 69 240° SW
Fr, 21.09. 14:00 20 4 41 250° W
Sa, 15.09. 8:00 7 2 25 230° SW
Sa, 15.09. 2:00 7 2 19 220° SW
Ortszeit Stärke Spitze Richtung
km/h Bft. km/h Grad Sektor
Sa, 22.09. 22:00 7 2 14 240° SW
Sa, 22.09. 21:50 7 2 - 240° SW
Sa, 22.09. 21:40 7 2 - 230° SW
Sa, 22.09. 21:30 7 2 14 230° SW
Sa, 22.09. 21:20 7 2 - 230° SW
Sa, 22.09. 21:10 7 2 - 230° SW
Sa, 22.09. 21:00 7 2 22 240° SW
Sa, 22.09. 20:30 9 2 20 250° W
Sa, 22.09. 20:00 11 2 29 250° W
Sa, 22.09. 19:30 14 3 29 260° W
Sa, 22.09. 19:00 19 3 37 260° W
Ortszeit Untergrenze Bedeckung Gattung
total tief tief mittel hoch
Sa, 22.09. 20:00 1800 m 3/8 5/8 - - -
Sa, 22.09. 14:00 540 m 7/8 7/8 - - -
Sa, 22.09. 8:00 1410 m 1/8 1/8 - - -
Sa, 22.09. 2:00 1470 m 6/8 2/8 - - -
Fr, 21.09. 20:00 - 0/8 0/8 - - -
Fr, 21.09. 14:00 780 m 7/8 7/8 - - -
Sa, 15.09. 8:00 270 m 2/8 1/8 - - -
Sa, 15.09. 2:00 1800 m 7/8 4/8 - - -
Ortszeit Bedeckungsgrad in Achtel und Wolkenuntergrenze
Sa, 22.09. 22:00 2(1290m)
Sa, 22.09. 21:50 2(1290m)
Sa, 22.09. 21:40 2(1290m)
Sa, 22.09. 21:30 1(1140m)
Sa, 22.09. 21:20 1(1140m)
Sa, 22.09. 21:10 1(1140m) 2(1500m)
Sa, 22.09. 21:00 1(1800m)
Sa, 22.09. 20:30 1(1020m) 7(1800m)
Sa, 22.09. 20:00 3(1800m) 2(1200m) 5(1800m)
Sa, 22.09. 19:30 keine Wolken
Sa, 22.09. 19:00 keine Wolken
Ortszeit Luftdruck NN (hPa) Tendenz (hPa in 3 Std.)
Sa, 22.09. 20:00 1013 + 0,1
Sa, 22.09. 14:00 1013 0,0
Sa, 22.09. 8:00 1012 + 2,0
Sa, 22.09. 2:00 1008 + 1,5
Fr, 21.09. 20:00 1005 + 2,2
Fr, 21.09. 14:00 1001 keine Meldung
Sa, 15.09. 8:00 1017 + 1,0
Sa, 15.09. 2:00 1017 - 0,4
Ortszeit Luftdruck NN (hPa) Tendenz (hPa in 3 Std.)
Sa, 22.09. 22:00 1014 + 0,8
Sa, 22.09. 21:50 1014 keine Meldung
Sa, 22.09. 21:40 1013 keine Meldung
Sa, 22.09. 21:30 1013 + 0,5
Sa, 22.09. 21:20 1013 keine Meldung
Sa, 22.09. 21:10 1013 keine Meldung
Sa, 22.09. 21:00 1013 + 0,3
Sa, 22.09. 20:30 1013 + 0,2
Sa, 22.09. 20:00 1013 + 0,1
Sa, 22.09. 19:30 1013 - 0,2
Sa, 22.09. 19:00 1013 - 0,6
Ortszeit Schneehöhe (cm)
Sa, 22.09. 20:00 -
Sa, 22.09. 14:00 -
Sa, 22.09. 8:00 -
Sa, 22.09. 2:00 -
Fr, 21.09. 20:00 -
Fr, 21.09. 14:00 -
Sa, 15.09. 8:00 -
Sa, 15.09. 2:00 -
Ortszeit Schneehöhe (cm)
Sa, 22.09. 22:00 -
Sa, 22.09. 21:50 -
Sa, 22.09. 21:40 -
Sa, 22.09. 21:30 -
Sa, 22.09. 21:20 -
Sa, 22.09. 21:10 -
Sa, 22.09. 21:00 -
Sa, 22.09. 20:30 -
Sa, 22.09. 20:00 -
Sa, 22.09. 19:30 -
Sa, 22.09. 19:00 -
Link zu dieser Seite / Seite empfehlen

Das Wetter in ...